createdAt,value
2022-09-26T00:00:05.666Z,100332.84
2022-09-26T00:02:32.095Z,100324.88
2022-09-26T00:04:58.461Z,100323.28
2022-09-26T00:07:24.762Z,100314.88
2022-09-26T00:09:51.061Z,100311.31
2022-09-26T00:12:17.360Z,100305.69
2022-09-26T00:14:43.645Z,100303.69
2022-09-26T00:17:10.053Z,100298.50
2022-09-26T00:19:36.385Z,100294.09
2022-09-26T00:22:02.700Z,100293.69
2022-09-26T00:24:29.604Z,100284.91
2022-09-26T00:26:55.891Z,100280.13
2022-09-26T00:29:22.185Z,100279.72
2022-09-26T00:31:49.084Z,100270.09
2022-09-26T00:34:17.814Z,100271.31
2022-09-26T00:36:44.221Z,100267.31
2022-09-26T00:39:13.114Z,100247.28
2022-09-26T00:41:39.825Z,100243.66
2022-09-26T00:44:43.765Z,100237.22
2022-09-26T00:47:36.942Z,100228.41
2022-09-26T00:50:14.391Z,100234.00
2022-09-26T00:52:46.868Z,100224.41
2022-09-26T00:55:17.724Z,100222.81
2022-09-26T00:57:58.258Z,100222.00
2022-09-26T01:00:24.735Z,100216.00
2022-09-26T01:02:52.365Z,100208.78
2022-09-26T01:05:21.612Z,100216.00
2022-09-26T01:07:48.764Z,100207.59
2022-09-26T01:10:16.021Z,100209.59
2022-09-26T01:12:43.423Z,100207.16
2022-09-26T01:15:10.851Z,100197.56
2022-09-26T01:17:39.992Z,100198.75
2022-09-26T01:20:06.258Z,100191.16
2022-09-26T01:23:02.353Z,100195.53
2022-09-26T01:25:41.871Z,100191.16
2022-09-26T01:28:29.359Z,100182.75
2022-09-26T01:31:21.990Z,100181.56
2022-09-26T01:33:58.305Z,100173.94
2022-09-26T01:36:37.953Z,100174.75
2022-09-26T01:39:21.553Z,100166.34
2022-09-26T01:42:09.441Z,100164.75
2022-09-26T01:44:51.984Z,100167.53
2022-09-26T01:47:41.100Z,100167.16
2022-09-26T01:50:16.667Z,100159.53
2022-09-26T01:52:55.528Z,100152.72
2022-09-26T01:55:28.837Z,100150.34
2022-09-26T01:58:03.447Z,100143.56
2022-09-26T02:00:30.333Z,100142.78
2022-09-26T02:02:59.363Z,100142.78
2022-09-26T02:05:33.241Z,100128.75
2022-09-26T02:08:07.205Z,100129.56
2022-09-26T02:10:43.649Z,100124.75
2022-09-26T02:13:15.564Z,100116.75
2022-09-26T02:15:47.374Z,100111.94
2022-09-26T02:18:20.385Z,100110.78
2022-09-26T02:20:55.663Z,100102.34
2022-09-26T02:23:22.031Z,100101.97
2022-09-26T02:25:48.685Z,100105.19
2022-09-26T02:28:16.018Z,100103.63
2022-09-26T02:30:44.425Z,100093.59
2022-09-26T02:33:10.926Z,100093.59
2022-09-26T02:35:55.203Z,100079.59
2022-09-26T02:38:23.597Z,100078.78
2022-09-26T02:40:56.283Z,100072.81
2022-09-26T02:43:50.028Z,100065.56
2022-09-26T02:46:43.869Z,100071.19
2022-09-26T02:49:35.862Z,100061.50
2022-09-26T02:52:28.764Z,100061.56
2022-09-26T02:55:03.357Z,100053.09
2022-09-26T02:57:36.286Z,100043.13
2022-09-26T03:00:09.263Z,100047.94
2022-09-26T03:02:54.058Z,100037.53
2022-09-26T03:05:30.642Z,100033.09
2022-09-26T03:08:12.137Z,100035.13
2022-09-26T03:10:40.292Z,100027.13
2022-09-26T03:13:10.986Z,100022.72
2022-09-26T03:15:40.598Z,100014.28
2022-09-26T03:18:12.823Z,100006.69
2022-09-26T03:20:40.526Z,100003.88
2022-09-26T03:23:06.917Z,100003.09
2022-09-26T03:25:33.431Z,99995.41
2022-09-26T03:28:02.134Z,99989.81
2022-09-26T03:30:32.079Z,99988.22
2022-09-26T03:32:58.383Z,99989.00
2022-09-26T03:35:24.723Z,99984.22
2022-09-26T03:37:51.032Z,99986.22
2022-09-26T03:40:17.452Z,99973.00
2022-09-26T03:42:43.786Z,99974.59
2022-09-26T03:45:10.830Z,99970.19
2022-09-26T03:47:41.791Z,99970.19
2022-09-26T03:50:08.952Z,99960.56
2022-09-26T03:52:36.365Z,99960.97
2022-09-26T03:55:02.719Z,99954.56
2022-09-26T03:57:29.032Z,99952.56
2022-09-26T03:59:55.373Z,99950.13
2022-09-26T04:02:22.555Z,99943.72
2022-09-26T04:04:49.031Z,99937.31
2022-09-26T04:07:15.593Z,99932.91
2022-09-26T04:09:42.223Z,99933.72
2022-09-26T04:12:08.596Z,99930.50
2022-09-26T04:14:35.550Z,99930.50
2022-09-26T04:17:01.846Z,99919.69
2022-09-26T04:19:28.287Z,99913.28
2022-09-26T04:21:54.602Z,99911.28
2022-09-26T04:24:21.247Z,99900.50
2022-09-26T04:26:48.406Z,99892.88
2022-09-26T04:29:15.053Z,99887.28
2022-09-26T04:31:42.047Z,99888.88
2022-09-26T04:34:09.594Z,99880.47
2022-09-26T04:36:35.891Z,99874.06
2022-09-26T04:39:02.493Z,99873.25
2022-09-26T04:41:29.682Z,99871.66
2022-09-26T04:43:57.917Z,99870.06
2022-09-26T04:46:30.647Z,99860.41
2022-09-26T04:49:00.760Z,99866.44
2022-09-26T04:51:28.818Z,99858.81
2022-09-26T04:53:55.908Z,99860.41
2022-09-26T04:56:23.510Z,99856.03
2022-09-26T04:58:50.251Z,99855.22
2022-09-26T05:01:19.216Z,99848.81
2022-09-26T05:03:45.598Z,99844.00
2022-09-26T05:06:13.762Z,99846.03
2022-09-26T05:08:42.999Z,99842.78
2022-09-26T05:11:09.961Z,99832.38
2022-09-26T05:13:36.980Z,99834.38
2022-09-26T05:16:03.679Z,99830.78
2022-09-26T05:18:30.066Z,99828.78
2022-09-26T05:20:57.369Z,99829.97
2022-09-26T05:23:45.248Z,99829.59
2022-09-26T05:26:39.800Z,99822.75
2022-09-26T05:29:08.928Z,99817.16
2022-09-26T05:31:39.354Z,99817.16
2022-09-26T05:34:12.220Z,99815.56
2022-09-26T05:36:42.692Z,99805.53
2022-09-26T05:39:29.369Z,99811.16
2022-09-26T05:41:56.868Z,99810.34
2022-09-26T05:44:23.377Z,99804.75
2022-09-26T05:46:51.386Z,99808.75
2022-09-26T05:49:17.770Z,99803.94
2022-09-26T05:51:44.105Z,99804.75
2022-09-26T05:54:10.494Z,99800.34
2022-09-26T05:56:37.346Z,99802.34
2022-09-26T05:59:04.871Z,99800.75
2022-09-26T06:01:33.192Z,99803.56
2022-09-26T06:03:59.863Z,99797.53
2022-09-26T06:06:26.347Z,99803.16
2022-09-26T06:08:52.658Z,99797.13
2022-09-26T06:11:24.822Z,99791.53
2022-09-26T06:13:51.157Z,99784.34
2022-09-26T06:16:19.578Z,99791.53
2022-09-26T06:18:47.500Z,99785.53
2022-09-26T06:21:17.090Z,99778.34
2022-09-26T06:23:44.231Z,99772.75
2022-09-26T06:26:15.663Z,99774.34
2022-09-26T06:28:42.184Z,99770.34
2022-09-26T06:31:14.672Z,99771.19
2022-09-26T06:33:41.332Z,99758.75
2022-09-26T06:36:10.625Z,99748.31
2022-09-26T06:38:38.223Z,99745.53
2022-09-26T06:41:07.157Z,99745.13
2022-09-26T06:43:33.772Z,99736.69
2022-09-26T06:46:00.092Z,99735.91
2022-09-26T06:48:27.052Z,99730.69
2022-09-26T06:51:00.017Z,99723.84
2022-09-26T06:53:27.173Z,99723.81
2022-09-26T06:55:54.193Z,99735.06
2022-09-26T06:58:20.873Z,99713.38
2022-09-26T07:00:47.368Z,99714.56
2022-09-26T07:03:15.867Z,99710.13
2022-09-26T07:05:43.659Z,99706.47
2022-09-26T07:08:10.058Z,99712.91
2022-09-26T07:10:37.719Z,99706.44
2022-09-26T07:13:09.350Z,99696.00
2022-09-26T07:15:37.066Z,99689.97
2022-09-26T07:18:06.178Z,99685.50
2022-09-26T07:20:36.873Z,99682.25
2022-09-26T07:23:04.684Z,99675.03
2022-09-26T07:25:31.829Z,99674.59
2022-09-26T07:27:58.802Z,99678.56
2022-09-26T07:30:26.008Z,99678.91
2022-09-26T07:32:52.298Z,99680.06
2022-09-26T07:35:18.730Z,99663.19
2022-09-26T07:37:45.029Z,99655.94
2022-09-26T07:40:11.995Z,99661.53
2022-09-26T07:42:38.766Z,99663.09
2022-09-26T07:45:28.778Z,99662.31
2022-09-26T07:48:11.389Z,99657.91
2022-09-26T07:50:37.961Z,99653.06
2022-09-26T07:53:04.290Z,99659.47
2022-09-26T07:55:30.594Z,99653.06
2022-09-26T07:57:57.827Z,99646.66
2022-09-26T08:00:24.551Z,99645.06
2022-09-26T08:02:52.613Z,99639.00
2022-09-26T08:05:21.944Z,99644.22
2022-09-26T08:07:49.136Z,99632.59
2022-09-26T08:10:20.092Z,99638.63
2022-09-26T08:12:47.059Z,99630.22
2022-09-26T08:15:14.022Z,99636.63
2022-09-26T08:17:40.811Z,99634.59
2022-09-26T08:20:07.841Z,99639.00
2022-09-26T08:22:34.167Z,99622.94
2022-09-26T08:25:00.519Z,99628.56
2022-09-26T08:27:26.813Z,99628.13
2022-09-26T08:29:53.663Z,99620.53
2022-09-26T08:32:20.530Z,99630.13
2022-09-26T08:34:47.528Z,99628.91
2022-09-26T08:37:14.301Z,99620.09
2022-09-26T08:39:40.588Z,99616.44
2022-09-26T08:42:23.732Z,99611.66
2022-09-26T08:44:58.038Z,99620.09
2022-09-26T08:47:40.087Z,99616.88
2022-09-26T08:50:37.620Z,99609.69
2022-09-26T08:53:10.321Z,99616.91
2022-09-26T08:55:42.948Z,99623.38
2022-09-26T08:58:19.403Z,99616.53
2022-09-26T09:00:49.302Z,99613.38
2022-09-26T09:03:30.883Z,99614.19
2022-09-26T09:06:07.225Z,99622.22
2022-09-26T09:08:41.570Z,99618.22
2022-09-26T09:11:26.173Z,99620.66
2022-09-26T09:14:04.718Z,99626.28
2022-09-26T09:16:37.062Z,99623.84
2022-09-26T09:19:30.128Z,99627.88
2022-09-26T09:22:18.435Z,99619.44
2022-09-26T09:25:16.970Z,99626.34
2022-09-26T09:28:18.258Z,99613.94
2022-09-26T09:30:52.232Z,99620.38
2022-09-26T09:33:29.322Z,99614.41
2022-09-26T09:36:01.714Z,99611.63
2022-09-26T09:38:30.912Z,99614.47
2022-09-26T09:41:03.535Z,99600.06
2022-09-26T09:43:51.697Z,99600.88
2022-09-26T09:46:39.489Z,99601.69
2022-09-26T09:49:09.169Z,99591.69
2022-09-26T09:51:54.010Z,99592.97
2022-09-26T09:54:55.526Z,99590.16
2022-09-26T09:57:42.689Z,99574.50
2022-09-26T10:00:16.755Z,99570.91
2022-09-26T10:03:11.242Z,99572.56
2022-09-26T10:05:47.065Z,99560.13
2022-09-26T10:08:26.977Z,99556.97
2022-09-26T10:11:25.988Z,99554.53
2022-09-26T10:14:00.048Z,99548.13
2022-09-26T10:16:26.728Z,99555.31
2022-09-26T10:19:11.219Z,99549.34
2022-09-26T10:21:47.211Z,99544.88
2022-09-26T10:24:40.999Z,99534.88
2022-09-26T10:27:38.395Z,99530.84
2022-09-26T10:30:25.654Z,99528.88
2022-09-26T10:32:56.750Z,99522.44
2022-09-26T10:35:42.769Z,99511.25
2022-09-26T10:38:23.088Z,99506.44
2022-09-26T10:40:55.776Z,99494.78
2022-09-26T10:43:30.530Z,99487.16
2022-09-26T10:46:15.045Z,99472.34
2022-09-26T10:48:56.743Z,99469.16
2022-09-26T10:51:36.041Z,99469.09
2022-09-26T10:54:13.032Z,99460.66
2022-09-26T10:56:47.690Z,99459.41
2022-09-26T10:59:16.342Z,99450.19
2022-09-26T11:01:45.752Z,99456.19
2022-09-26T11:04:38.016Z,99456.09
2022-09-26T11:07:07.703Z,99451.25
2022-09-26T11:09:35.386Z,99444.81
2022-09-26T11:12:27.832Z,99432.38
2022-09-26T11:14:58.473Z,99430.31
2022-09-26T11:17:45.159Z,99422.25
2022-09-26T11:20:45.250Z,99429.06
2022-09-26T11:23:44.733Z,99422.19
2022-09-26T11:26:18.903Z,99420.50
2022-09-26T11:28:51.878Z,99420.47
2022-09-26T11:31:26.273Z,99410.03
2022-09-26T11:33:53.995Z,99417.22
2022-09-26T11:37:03.896Z,99399.16
2022-09-26T11:39:50.495Z,99401.50
2022-09-26T11:42:36.462Z,99395.53
2022-09-26T11:45:33.674Z,99397.91
2022-09-26T11:48:08.553Z,99391.06
2022-09-26T11:50:50.119Z,99389.50
2022-09-26T11:53:26.497Z,99389.09
2022-09-26T11:56:02.164Z,99385.88
2022-09-26T11:58:39.950Z,99373.38
2022-09-26T12:01:27.446Z,99373.69
2022-09-26T12:04:15.820Z,99361.97
2022-09-26T12:06:45.493Z,99358.25
2022-09-26T12:09:18.494Z,99340.94
2022-09-26T12:12:15.140Z,99341.31
2022-09-26T12:14:55.665Z,99342.00
2022-09-26T12:17:41.736Z,99331.84
2022-09-26T12:20:26.310Z,99332.97
2022-09-26T12:23:04.827Z,99338.03
2022-09-26T12:25:57.426Z,99329.06
2022-09-26T12:28:26.937Z,99330.56
2022-09-26T12:31:38.976Z,99320.09
2022-09-26T12:34:08.383Z,99314.78
2022-09-26T12:36:52.444Z,99309.63
2022-09-26T12:39:40.579Z,99302.00
2022-09-26T12:42:16.303Z,99297.53
2022-09-26T12:44:57.533Z,99291.91
2022-09-26T12:47:46.613Z,99290.75
2022-09-26T12:50:51.538Z,99285.91
2022-09-26T12:53:23.933Z,99282.25
2022-09-26T12:55:55.028Z,99290.31
2022-09-26T12:59:05.022Z,99276.25
2022-09-26T13:01:47.498Z,99273.00
2022-09-26T13:04:28.772Z,99274.53
2022-09-26T13:07:19.741Z,99279.38
2022-09-26T13:10:08.951Z,99279.75
2022-09-26T13:12:46.446Z,99276.88
2022-09-26T13:15:36.542Z,99278.09
2022-09-26T13:18:26.311Z,99271.66
2022-09-26T13:20:59.798Z,99270.13
2022-09-26T13:23:34.853Z,99278.25
2022-09-26T13:26:35.492Z,99269.94
2022-09-26T13:29:19.139Z,99272.03
2022-09-26T13:31:58.671Z,99269.25
2022-09-26T13:34:42.240Z,99260.94
2022-09-26T13:37:41.403Z,99259.38
2022-09-26T13:40:34.519Z,99257.81
2022-09-26T13:43:20.441Z,99258.22
2022-09-26T13:46:00.359Z,99256.66
2022-09-26T13:48:38.890Z,99259.50
2022-09-26T13:51:18.329Z,99260.38
2022-09-26T13:54:02.878Z,99254.38
2022-09-26T13:56:43.921Z,99245.19
2022-09-26T13:59:13.346Z,99249.22
2022-09-26T14:02:19.341Z,99241.25
2022-09-26T14:04:47.978Z,99229.63
2022-09-26T14:07:37.163Z,99228.06
2022-09-26T14:10:07.363Z,99230.03
2022-09-26T14:12:55.345Z,99226.88
2022-09-26T14:15:28.259Z,99232.94
2022-09-26T14:18:16.250Z,99224.91
2022-09-26T14:21:10.589Z,99224.50
2022-09-26T14:23:45.095Z,99214.78
2022-09-26T14:26:12.970Z,99209.97
2022-09-26T14:28:46.043Z,99214.78
2022-09-26T14:31:33.557Z,99216.44
2022-09-26T14:34:18.993Z,99207.63
2022-09-26T14:36:46.855Z,99205.63
2022-09-26T14:39:44.430Z,99200.03
2022-09-26T14:42:26.182Z,99191.59
2022-09-26T14:45:02.230Z,99186.41
2022-09-26T14:47:40.226Z,99184.41
2022-09-26T14:50:24.254Z,99183.63
2022-09-26T14:52:58.396Z,99178.78
2022-09-26T14:55:26.868Z,99183.97
2022-09-26T14:58:17.258Z,99167.16
2022-09-26T15:00:49.167Z,99169.97
2022-09-26T15:03:19.239Z,99159.16
2022-09-26T15:05:46.674Z,99161.59
2022-09-26T15:08:28.597Z,99159.63
2022-09-26T15:10:57.345Z,99152.00
2022-09-26T15:13:45.066Z,99145.22
2022-09-26T15:16:40.559Z,99154.44
2022-09-26T15:19:14.656Z,99146.03
2022-09-26T15:21:50.741Z,99143.63
2022-09-26T15:24:36.489Z,99153.28
2022-09-26T15:27:17.504Z,99137.19
2022-09-26T15:29:46.483Z,99138.00
2022-09-26T15:32:25.292Z,99128.78
2022-09-26T15:34:52.829Z,99123.16
2022-09-26T15:37:22.895Z,99116.75
2022-09-26T15:39:50.029Z,99114.72
2022-09-26T15:42:43.910Z,99124.44
2022-09-26T15:45:18.425Z,99110.81
2022-09-26T15:47:44.733Z,99106.78
2022-09-26T15:50:28.003Z,99102.44
2022-09-26T15:53:07.926Z,99089.25
2022-09-26T15:56:03.657Z,99094.09
2022-09-26T15:58:34.894Z,99089.66
2022-09-26T16:01:01.959Z,99078.41
2022-09-26T16:03:37.419Z,99083.69
2022-09-26T16:06:18.706Z,99069.34
2022-09-26T16:08:52.768Z,99084.22
2022-09-26T16:11:19.432Z,99079.41
2022-09-26T16:13:49.865Z,99080.31
2022-09-26T16:16:18.802Z,99076.31
2022-09-26T16:18:52.335Z,99063.16
2022-09-26T16:21:25.596Z,99071.19
2022-09-26T16:23:54.865Z,99066.38
2022-09-26T16:26:37.768Z,99062.84
2022-09-26T16:29:05.023Z,99062.41
2022-09-26T16:31:36.417Z,99054.41
2022-09-26T16:34:04.249Z,99055.63
2022-09-26T16:36:34.850Z,99063.25
2022-09-26T16:39:05.827Z,99058.06
2022-09-26T16:44:37.705Z,99054.06
2022-09-26T16:47:25.951Z,99053.28
2022-09-26T16:49:52.324Z,99049.69
2022-09-26T16:52:26.801Z,99040.53
2022-09-26T16:54:54.909Z,99051.34
2022-09-26T16:57:24.779Z,99046.13
2022-09-26T16:59:52.798Z,99040.13
2022-09-26T17:02:20.747Z,99030.09
2022-09-26T17:04:48.388Z,99033.72
2022-09-26T17:07:15.804Z,99028.09
2022-09-26T17:09:43.905Z,99030.91
2022-09-26T17:12:21.282Z,99027.72
2022-09-26T17:14:55.176Z,99027.72
2022-09-26T17:17:25.753Z,99026.13
2022-09-26T17:19:59.202Z,99019.34
2022-09-26T17:22:26.505Z,99021.34
2022-09-26T17:24:53.025Z,99015.81
2022-09-26T17:27:23.091Z,99013.41
2022-09-26T17:29:51.956Z,99010.22
2022-09-26T17:32:29.882Z,99005.44
2022-09-26T17:34:59.778Z,99009.03
2022-09-26T17:37:27.158Z,99002.69
2022-09-26T17:39:55.010Z,99002.31
2022-09-26T17:42:22.332Z,98997.97
2022-09-26T17:44:49.005Z,99001.63
2022-09-26T17:47:16.402Z,98988.94
2022-09-26T17:49:48.105Z,98994.59
2022-09-26T17:52:31.044Z,98982.66
2022-09-26T17:55:01.407Z,98990.28
2022-09-26T17:57:30.059Z,98989.56
2022-09-26T17:59:57.553Z,98981.19
2022-09-26T18:02:33.926Z,98978.84
2022-09-26T18:05:03.966Z,98978.06
2022-09-26T18:07:38.921Z,98980.13
2022-09-26T18:10:11.473Z,98970.53
2022-09-26T18:12:38.307Z,98973.75
2022-09-26T18:15:05.198Z,98965.38
2022-09-26T18:17:31.620Z,98959.03
2022-09-26T18:19:58.000Z,98961.47
2022-09-26T18:22:30.987Z,98949.50
2022-09-26T18:25:04.584Z,98948.34
2022-09-26T18:27:33.223Z,98942.34
2022-09-26T18:29:59.875Z,98937.53
2022-09-26T18:32:36.605Z,98938.75
2022-09-26T18:35:03.582Z,98935.97
2022-09-26T18:37:29.912Z,98938.41
2022-09-26T18:40:00.140Z,98930.81
2022-09-26T18:42:29.412Z,98930.47
2022-09-26T18:45:03.414Z,98930.50
2022-09-26T18:47:37.532Z,98928.91
2022-09-26T18:50:05.500Z,98919.69
2022-09-26T18:52:31.899Z,98922.91
2022-09-26T18:55:33.584Z,98926.94
2022-09-26T18:58:18.606Z,98925.34
2022-09-26T19:00:45.820Z,98917.34
2022-09-26T19:03:12.172Z,98915.78
2022-09-26T19:05:38.709Z,98911.78
2022-09-26T19:08:06.060Z,98912.19
2022-09-26T19:10:32.389Z,98911.38
2022-09-26T19:12:59.807Z,98908.59
2022-09-26T19:15:27.650Z,98912.97
2022-09-26T19:17:54.056Z,98908.19
2022-09-26T19:20:20.366Z,98910.16
2022-09-26T19:22:46.739Z,98912.97
2022-09-26T19:25:13.214Z,98907.38
2022-09-26T19:27:48.606Z,98905.00
2022-09-26T19:30:21.154Z,98900.56
2022-09-26T19:32:50.119Z,98903.72
2022-09-26T19:35:33.680Z,98898.56
2022-09-26T19:38:01.867Z,98892.94
2022-09-26T19:40:28.598Z,98903.72
2022-09-26T19:42:57.042Z,98893.75
2022-09-26T19:45:24.542Z,98893.75
2022-09-26T19:47:54.364Z,98894.53
2022-09-26T19:50:23.153Z,98891.72
2022-09-26T19:52:51.846Z,98883.72
2022-09-26T19:55:24.169Z,98886.50
2022-09-26T19:57:52.184Z,98890.13
2022-09-26T20:00:19.479Z,98884.53
2022-09-26T20:02:47.180Z,98885.72
2022-09-26T20:05:20.212Z,98874.13
2022-09-26T20:07:47.632Z,98884.13
2022-09-26T20:10:16.867Z,98888.13
2022-09-26T20:12:43.839Z,98884.53
2022-09-26T20:15:13.805Z,98884.94
2022-09-26T20:17:43.045Z,98882.97
2022-09-26T20:20:22.981Z,98879.78
2022-09-26T20:22:51.396Z,98878.94
2022-09-26T20:25:26.809Z,98878.56
2022-09-26T20:27:54.173Z,98878.56
2022-09-26T20:30:39.816Z,98874.56
2022-09-26T20:33:06.623Z,98861.34
2022-09-26T20:35:37.335Z,98857.75
2022-09-26T20:38:07.330Z,98846.53
2022-09-26T20:40:34.711Z,98844.50
2022-09-26T20:43:05.490Z,98857.75
2022-09-26T20:45:38.270Z,98857.75
2022-09-26T20:48:08.616Z,98856.91
2022-09-26T20:50:38.416Z,98853.72
2022-09-26T20:53:20.078Z,98856.13
2022-09-26T20:55:47.111Z,98858.09
2022-09-26T20:58:13.953Z,98854.50
2022-09-26T21:00:42.006Z,98857.66
2022-09-26T21:03:11.942Z,98866.41
2022-09-26T21:05:38.630Z,98859.19
2022-09-26T21:08:25.074Z,98857.63
2022-09-26T21:10:51.380Z,98844.34
2022-09-26T21:13:17.687Z,98839.53
2022-09-26T21:15:44.256Z,98837.50
2022-09-26T21:18:24.231Z,98845.19
2022-09-26T21:20:52.179Z,98842.72
2022-09-26T21:23:19.959Z,98838.34
2022-09-26T21:25:49.594Z,98835.53
2022-09-26T21:28:22.300Z,98841.19
2022-09-26T21:30:49.512Z,98838.00
2022-09-26T21:33:15.906Z,98834.75
2022-09-26T21:35:42.467Z,98826.34
2022-09-26T21:38:09.059Z,98823.53
2022-09-26T21:40:38.775Z,98821.97
2022-09-26T21:43:27.092Z,98823.19
2022-09-26T21:45:53.470Z,98821.13
2022-09-26T21:48:19.873Z,98811.50
2022-09-26T21:50:57.838Z,98816.31
2022-09-26T21:53:31.596Z,98807.81
2022-09-26T21:56:06.596Z,98813.38
2022-09-26T21:58:37.977Z,98811.38
2022-09-26T22:01:04.424Z,98806.94
2022-09-26T22:03:30.822Z,98801.72
2022-09-26T22:05:57.124Z,98798.53
2022-09-26T22:08:23.673Z,98794.50
2022-09-26T22:10:53.080Z,98804.13
2022-09-26T22:13:19.799Z,98790.91
2022-09-26T22:15:46.096Z,98790.13
2022-09-26T22:18:12.479Z,98786.09
2022-09-26T22:20:38.805Z,98788.88
2022-09-26T22:23:05.125Z,98784.50
2022-09-26T22:25:31.434Z,98783.72
2022-09-26T22:27:57.755Z,98784.91
2022-09-26T22:30:24.295Z,98778.50
2022-09-26T22:32:50.681Z,98774.13
2022-09-26T22:35:17.045Z,98764.94
2022-09-26T22:37:43.333Z,98774.13
2022-09-26T22:40:09.883Z,98771.31
2022-09-26T22:42:36.229Z,98764.09
2022-09-26T22:45:02.523Z,98764.88
2022-09-26T22:47:28.805Z,98763.66
2022-09-26T22:49:55.111Z,98759.63
2022-09-26T22:52:21.401Z,98757.59
2022-09-26T22:54:48.030Z,98754.44
2022-09-26T22:57:14.386Z,98751.66
2022-09-26T22:59:40.690Z,98750.84
2022-09-26T23:02:07.050Z,98746.88
2022-09-26T23:04:48.580Z,98752.50
2022-09-26T23:07:17.698Z,98752.13
2022-09-26T23:09:44.273Z,98748.16
2022-09-26T23:12:11.420Z,98747.38
2022-09-26T23:14:38.514Z,98754.63
2022-09-26T23:17:04.898Z,98749.81
2022-09-26T23:19:32.294Z,98742.63
2022-09-26T23:21:58.714Z,98737.88
2022-09-26T23:24:25.009Z,98739.88
2022-09-26T23:26:51.375Z,98732.69
2022-09-26T23:29:17.705Z,98741.09
2022-09-26T23:31:44.075Z,98737.47
2022-09-26T23:34:12.027Z,98738.69
2022-09-26T23:36:38.350Z,98731.50
2022-09-26T23:39:04.743Z,98737.56
2022-09-26T23:41:31.030Z,98737.56
2022-09-26T23:43:57.370Z,98738.38
2022-09-26T23:46:23.759Z,98732.81
2022-09-26T23:48:50.179Z,98733.69
2022-09-26T23:51:16.465Z,98735.31
2022-09-26T23:53:42.904Z,98732.56
2022-09-26T23:56:11.938Z,98731.84
2022-09-26T23:58:38.441Z,98739.44
